Time;durP1;ratioP1;P1;durP2;ratioP2;P2;SDS_P1;SDS_P2;PMS_P1;PMS_P2;Temp;Humidity;BMP_temperature;BMP_pressure;BME280_temperature;BME280_humidity;BME280_pressure;Samples;Min_cycle;Max_cycle;Signal;HPM_P1;HPM_P2
2022/04/12 00:01:49;;;;;;;0.40;0.40;;;3.80;99.90;;;;;;5005368;28;20229;-80
2022/04/12 00:04:15;;;;;;;0.40;0.40;;;3.70;99.90;;;;;;5008830;28;20195;-78
2022/04/12 00:06:41;;;;;;;0.40;0.40;;;3.60;99.90;;;;;;5009428;28;20192;-80
2022/04/12 00:09:06;;;;;;;0.40;0.40;;;3.60;99.90;;;;;;5007892;28;20555;-78
2022/04/12 00:11:32;;;;;;;0.40;0.40;;;3.60;99.90;;;;;;5007938;28;20200;-78
2022/04/12 00:13:57;;;;;;;0.40;0.40;;;3.60;99.90;;;;;;5000068;28;20193;-78
2022/04/12 00:16:23;;;;;;;0.40;0.40;;;3.50;99.90;;;;;;5006821;28;20208;-80
2022/04/12 00:19:04;;;;;;;0.40;0.40;;;3.60;99.90;;;;;;5011222;28;20742;-80
2022/04/12 00:21:34;;;;;;;0.40;0.40;;;3.50;99.90;;;;;;5001449;28;20188;-80
2022/04/12 00:24:04;;;;;;;0.30;0.30;;;3.70;99.90;;;;;;4990098;28;20581;-80
2022/04/12 00:26:29;;;;;;;0.50;0.50;;;3.60;99.90;;;;;;5015884;28;20431;-80
2022/04/12 00:28:54;;;;;;;0.40;0.40;;;3.40;99.90;;;;;;5008279;28;20442;-81
2022/04/12 00:31:20;;;;;;;0.40;0.40;;;3.30;99.90;;;;;;5006326;28;20673;-80
2022/04/12 00:33:45;;;;;;;0.40;0.40;;;3.20;99.90;;;;;;5014492;28;20191;-81
2022/04/12 00:36:11;;;;;;;0.50;0.50;;;3.30;99.90;;;;;;5009574;28;20548;-80
2022/04/12 00:38:38;;;;;;;0.47;0.47;;;3.20;99.90;;;;;;5010630;28;20338;-78
2022/04/12 00:41:05;;;;;;;0.50;0.50;;;3.30;99.90;;;;;;5017574;28;20183;-80
2022/04/12 00:43:33;;;;;;;0.50;0.50;;;3.20;99.90;;;;;;5003369;28;20476;-80
2022/04/12 00:46:00;;;;;;;0.40;0.40;;;3.20;99.90;;;;;;5008706;28;20447;-80
2022/04/12 00:48:30;;;;;;;0.40;0.40;;;3.30;99.90;;;;;;5003893;28;20435;-79
2022/04/12 00:50:56;;;;;;;0.40;0.40;;;3.20;99.90;;;;;;5006035;28;20454;-78
2022/04/12 00:53:23;;;;;;;0.40;0.40;;;3.10;99.90;;;;;;5000141;28;20450;-80
2022/04/12 00:55:48;;;;;;;0.40;0.40;;;3.00;99.90;;;;;;5007461;28;21087;-80
2022/04/12 00:58:14;;;;;;;0.50;0.50;;;3.00;99.90;;;;;;5011956;28;20482;-80
2022/04/12 01:00:40;;;;;;;0.30;0.30;;;2.90;99.90;;;;;;5012908;28;20184;-80
2022/04/12 01:03:05;;;;;;;0.40;0.40;;;3.00;99.90;;;;;;5004073;28;20228;-80
2022/04/12 01:05:32;;;;;;;0.40;0.40;;;3.10;99.90;;;;;;5010463;28;20263;-80
2022/04/12 01:07:58;;;;;;;0.40;0.40;;;3.10;99.90;;;;;;4997992;28;20251;-81
2022/04/12 01:10:24;;;;;;;0.40;0.40;;;3.10;99.90;;;;;;5006520;28;20447;-80
2022/04/12 01:12:51;;;;;;;0.50;0.50;;;3.00;99.90;;;;;;5008265;28;20192;-80
2022/04/12 01:15:22;;;;;;;0.40;0.40;;;3.20;99.90;;;;;;5003563;28;20176;-80
2022/04/12 01:17:48;;;;;;;0.43;0.43;;;3.10;99.90;;;;;;5004092;28;20819;-81
2022/04/12 01:20:15;;;;;;;0.40;0.40;;;2.90;99.90;;;;;;5006108;28;20439;-80
2022/04/12 01:23:05;;;;;;;0.40;0.40;;;2.90;99.90;;;;;;4990335;28;20845;-80
2022/04/12 01:25:31;;;;;;;0.40;0.40;;;2.80;99.90;;;;;;5009321;28;20840;-80
2022/04/12 01:27:56;;;;;;;0.40;0.40;;;2.80;99.90;;;;;;4992036;28;20461;-80
2022/04/12 01:30:22;;;;;;;0.50;0.50;;;2.70;99.90;;;;;;5015409;28;20567;-80
2022/04/12 01:32:47;;;;;;;0.40;0.40;;;2.70;99.90;;;;;;5028548;28;20192;-81
2022/04/12 01:35:13;;;;;;;0.50;0.50;;;2.70;99.90;;;;;;5023724;28;20184;-81
2022/04/12 01:37:38;;;;;;;0.50;0.50;;;2.80;99.90;;;;;;5006256;28;20614;-80
2022/04/12 01:40:05;;;;;;;0.53;0.53;;;2.70;99.90;;;;;;5009599;28;20196;-80
2022/04/12 01:42:31;;;;;;;0.40;0.40;;;2.80;99.90;;;;;;5009663;28;20260;-81
2022/04/12 01:44:56;;;;;;;0.40;0.40;;;3.10;99.90;;;;;;5025262;28;20438;-81
2022/04/12 01:47:22;;;;;;;0.40;0.40;;;3.30;99.90;;;;;;5015669;28;20215;-80
2022/04/12 01:49:47;;;;;;;0.40;0.40;;;3.50;99.90;;;;;;5012893;28;20191;-80
2022/04/12 01:52:15;;;;;;;0.50;0.50;;;3.70;99.90;;;;;;5012080;28;20263;-80
2022/04/12 01:54:41;;;;;;;0.40;0.40;;;3.60;99.90;;;;;;5013175;28;20270;-80
2022/04/12 01:57:06;;;;;;;0.30;0.30;;;3.60;99.90;;;;;;5006925;28;20451;-81
2022/04/12 01:59:32;;;;;;;0.47;0.47;;;3.70;99.90;;;;;;5016626;28;20523;-80
2022/04/12 02:01:58;;;;;;;0.40;0.40;;;3.70;99.90;;;;;;5013339;28;20299;-80
2022/04/12 02:04:24;;;;;;;0.50;0.50;;;3.60;99.90;;;;;;5015136;28;20192;-80
2022/04/12 02:06:50;;;;;;;0.50;0.50;;;3.70;99.90;;;;;;5024180;28;20210;-80
2022/04/12 02:09:15;;;;;;;0.40;0.40;;;3.70;99.90;;;;;;5015954;28;20437;-80
2022/04/12 02:11:41;;;;;;;0.40;0.40;;;3.80;99.90;;;;;;5018328;28;20203;-81
2022/04/12 02:14:07;;;;;;;0.40;0.40;;;3.70;99.90;;;;;;5025640;28;20191;-80
2022/04/12 02:16:34;;;;;;;0.40;0.40;;;3.70;99.90;;;;;;5013606;28;20220;-80
2022/04/12 02:18:59;;;;;;;0.40;0.40;;;3.70;99.90;;;;;;5025276;28;20458;-81
2022/04/12 02:21:25;;;;;;;0.40;0.40;;;3.60;99.90;;;;;;5036180;28;20426;-80
2022/04/12 02:23:50;;;;;;;0.40;0.40;;;3.50;99.90;;;;;;5020612;28;20568;-80
2022/04/12 02:26:16;;;;;;;0.30;0.30;;;3.50;99.90;;;;;;5009357;28;20540;-81
2022/04/12 02:28:41;;;;;;;0.40;0.40;;;3.60;99.90;;;;;;5008718;28;20189;-81
2022/04/12 02:31:07;;;;;;;0.40;0.40;;;3.50;99.90;;;;;;5002319;28;20279;-81
2022/04/12 02:33:32;;;;;;;0.40;0.40;;;3.40;99.90;;;;;;5025646;28;20191;-80
2022/04/12 02:35:57;;;;;;;0.50;0.50;;;3.40;99.90;;;;;;5032014;28;20955;-81
2022/04/12 02:38:23;;;;;;;0.40;0.40;;;3.30;99.90;;;;;;5013596;28;20203;-80
2022/04/12 02:40:48;;;;;;;0.50;0.50;;;3.30;99.90;;;;;;5015055;28;20183;-81
2022/04/12 02:43:14;;;;;;;0.40;0.40;;;3.40;99.90;;;;;;5004065;28;20230;-81
2022/04/12 02:45:40;;;;;;;0.50;0.50;;;3.20;99.90;;;;;;5008863;28;20227;-81
2022/04/12 02:48:08;;;;;;;0.40;0.40;;;3.30;99.90;;;;;;5015855;28;20299;-81
2022/04/12 02:50:34;;;;;;;0.43;0.43;;;3.20;99.90;;;;;;5012198;28;20929;-81
2022/04/12 02:52:59;;;;;;;0.40;0.40;;;3.20;99.90;;;;;;5020633;28;20462;-81
2022/04/12 02:55:25;;;;;;;0.50;0.50;;;3.20;99.90;;;;;;5012427;28;20286;-80
2022/04/12 02:57:51;;;;;;;0.50;0.50;;;3.20;99.90;;;;;;4985351;28;20577;-81
2022/04/12 03:00:16;;;;;;;0.47;0.47;;;3.20;99.90;;;;;;5009011;28;20180;-81
2022/04/12 03:02:42;;;;;;;0.40;0.40;;;3.30;99.90;;;;;;5011765;28;20255;-81
2022/04/12 03:05:08;;;;;;;0.50;0.50;;;3.30;99.90;;;;;;5019208;28;20176;-80
2022/04/12 03:07:33;;;;;;;0.40;0.40;;;3.30;99.90;;;;;;5012773;28;20203;-80
2022/04/12 03:09:59;;;;;;;0.40;0.40;;;3.30;99.90;;;;;;5017964;28;20434;-81
2022/04/12 03:12:24;;;;;;;0.43;0.43;;;3.30;99.90;;;;;;5020325;28;20665;-80
2022/04/12 03:14:50;;;;;;;0.50;0.50;;;3.50;99.90;;;;;;5017889;28;20621;-81
2022/04/12 03:17:17;;;;;;;0.40;0.40;;;3.60;99.90;;;;;;5011499;28;20188;-80
2022/04/12 03:19:42;;;;;;;0.50;0.50;;;3.60;99.90;;;;;;5017188;28;20180;-81
2022/04/12 03:22:07;;;;;;;0.50;0.50;;;3.80;99.90;;;;;;5010382;28;20466;-81
2022/04/12 03:24:33;;;;;;;0.40;0.40;;;3.70;99.90;;;;;;5009802;28;20596;-80
2022/04/12 03:26:58;;;;;;;0.40;0.40;;;3.80;99.90;;;;;;4991606;28;20185;-80
2022/04/12 03:29:27;;;;;;;0.40;0.40;;;3.80;99.90;;;;;;5013005;28;20203;-80
2022/04/12 03:31:53;;;;;;;0.40;0.40;;;3.70;99.90;;;;;;4992881;28;20185;-81
2022/04/12 03:34:19;;;;;;;0.50;0.50;;;3.70;99.90;;;;;;5021703;28;20443;-81
2022/04/12 03:36:45;;;;;;;0.40;0.40;;;3.60;99.90;;;;;;5016518;28;20641;-80
2022/04/12 03:39:17;;;;;;;0.50;0.50;;;3.70;99.90;;;;;;5011987;28;20434;-80
2022/04/12 03:41:43;;;;;;;0.40;0.40;;;3.80;99.90;;;;;;5019860;28;20431;-80
2022/04/12 03:44:08;;;;;;;0.40;0.40;;;3.80;99.90;;;;;;5018134;28;20462;-80
2022/04/12 03:46:34;;;;;;;0.50;0.50;;;3.80;99.90;;;;;;5020141;28;20461;-80
2022/04/12 03:48:59;;;;;;;0.40;0.40;;;3.90;99.90;;;;;;5010901;28;20797;-81
2022/04/12 03:51:25;;;;;;;0.47;0.47;;;3.90;99.90;;;;;;4991431;28;20195;-81
2022/04/12 03:53:50;;;;;;;0.40;0.40;;;3.90;99.90;;;;;;5006450;28;20290;-81
2022/04/12 03:56:16;;;;;;;0.50;0.50;;;3.70;99.90;;;;;;4992516;28;20236;-80
2022/04/12 03:58:42;;;;;;;0.40;0.40;;;3.60;99.90;;;;;;5008437;28;20185;-81
2022/04/12 04:01:07;;;;;;;0.33;0.33;;;3.60;99.90;;;;;;5006494;28;20183;-81
2022/04/12 04:03:35;;;;;;;0.40;0.40;;;3.50;99.90;;;;;;5010707;28;20586;-80
2022/04/12 04:06:02;;;;;;;0.50;0.50;;;3.50;99.90;;;;;;4983031;28;20176;-81
2022/04/12 04:08:27;;;;;;;0.40;0.40;;;3.40;99.90;;;;;;5008213;28;20465;-81
2022/04/12 04:10:53;;;;;;;0.50;0.50;;;3.50;99.90;;;;;;5014939;28;20439;-81
2022/04/12 04:13:18;;;;;;;0.40;0.40;;;3.40;99.90;;;;;;5022792;28;20184;-80
2022/04/12 04:15:45;;;;;;;0.40;0.40;;;3.40;99.90;;;;;;5004861;28;20621;-81
2022/04/12 04:18:12;;;;;;;0.40;0.40;;;3.40;99.90;;;;;;5011303;28;20649;-81
2022/04/12 04:20:37;;;;;;;0.50;0.50;;;3.40;99.90;;;;;;5001795;28;20439;-81
2022/04/12 04:23:03;;;;;;;0.40;0.40;;;3.50;99.90;;;;;;4988432;28;20549;-81
2022/04/12 04:25:28;;;;;;;0.50;0.50;;;3.50;99.90;;;;;;4997058;28;20187;-81
2022/04/12 04:27:55;;;;;;;0.40;0.40;;;3.50;99.90;;;;;;5008903;28;20194;-81
2022/04/12 04:30:21;;;;;;;0.40;0.40;;;3.60;99.90;;;;;;4999055;28;20340;-81
2022/04/12 04:32:47;;;;;;;0.43;0.43;;;3.70;99.90;;;;;;4982858;28;20451;-80
2022/04/12 04:35:13;;;;;;;0.50;0.50;;;3.70;99.90;;;;;;5006172;28;20965;-81
2022/04/12 04:37:46;;;;;;;0.50;0.50;;;3.70;99.90;;;;;;5016637;28;21293;-81
2022/04/12 04:40:17;;;;;;;0.40;0.40;;;3.80;99.90;;;;;;4992105;28;20509;-81
2022/04/12 04:42:44;;;;;;;0.40;0.40;;;3.80;99.90;;;;;;4996963;28;20479;-80
2022/04/12 04:45:13;;;;;;;0.40;0.40;;;3.80;99.90;;;;;;5004970;28;20456;-81
2022/04/12 04:47:52;;;;;;;0.50;0.50;;;3.80;99.90;;;;;;5012496;28;20451;-81
2022/04/12 04:50:23;;;;;;;0.40;0.40;;;3.80;99.90;;;;;;5007574;28;20435;-81
2022/04/12 04:52:50;;;;;;;0.40;0.40;;;3.80;99.90;;;;;;5004292;28;20529;-80
2022/04/12 04:55:16;;;;;;;0.40;0.40;;;3.90;99.90;;;;;;5004940;28;20596;-82
2022/04/12 04:57:43;;;;;;;0.50;0.50;;;3.80;99.90;;;;;;5010078;28;20488;-81
2022/04/12 05:00:16;;;;;;;0.50;0.50;;;3.80;99.90;;;;;;5002349;28;20473;-81
2022/04/12 05:02:46;;;;;;;0.50;0.50;;;3.90;99.90;;;;;;4983588;28;21056;-82
2022/04/12 05:05:12;;;;;;;0.40;0.40;;;4.00;99.90;;;;;;5014061;28;20450;-82
2022/04/12 05:07:39;;;;;;;0.40;0.40;;;4.10;99.90;;;;;;5002749;28;20439;-81
2022/04/12 05:10:05;;;;;;;0.40;0.40;;;4.20;99.90;;;;;;5005797;28;21255;-81
2022/04/12 05:12:31;;;;;;;0.50;0.50;;;4.20;99.90;;;;;;5003835;28;20807;-80
2022/04/12 05:14:56;;;;;;;0.40;0.40;;;4.30;99.90;;;;;;5006288;28;20458;-80
2022/04/12 05:17:28;;;;;;;0.40;0.40;;;4.40;99.90;;;;;;5005556;28;20328;-81
2022/04/12 05:19:58;;;;;;;0.40;0.40;;;4.50;99.90;;;;;;5005380;28;20301;-82
2022/04/12 05:22:24;;;;;;;0.40;0.40;;;4.50;99.90;;;;;;5005277;28;20484;-80
2022/04/12 05:24:50;;;;;;;0.40;0.40;;;4.70;99.90;;;;;;5001464;28;20821;-77
2022/04/12 05:27:16;;;;;;;0.40;0.40;;;4.70;99.90;;;;;;5007267;28;20470;-80
2022/04/12 05:29:42;;;;;;;0.40;0.40;;;4.70;99.90;;;;;;4988041;28;20196;-79
2022/04/12 05:32:09;;;;;;;0.40;0.40;;;4.80;99.90;;;;;;5003190;28;20447;-78
2022/04/12 05:34:41;;;;;;;0.40;0.40;;;4.80;99.90;;;;;;5009143;28;20184;-78
2022/04/12 05:37:07;;;;;;;0.40;0.40;;;4.90;99.90;;;;;;5002105;28;20529;-78
2022/04/12 05:39:33;;;;;;;0.50;0.50;;;4.90;99.90;;;;;;5011200;28;20556;-78
2022/04/12 05:42:02;;;;;;;0.40;0.40;;;5.00;99.90;;;;;;4988970;28;20482;-78
2022/04/12 05:44:28;;;;;;;0.37;0.37;;;5.10;99.90;;;;;;5002268;28;20545;-78
2022/04/12 05:46:54;;;;;;;0.40;0.40;;;5.20;99.90;;;;;;4983825;28;20439;-78
2022/04/12 05:49:20;;;;;;;0.40;0.40;;;5.40;99.90;;;;;;5005562;28;20439;-79
2022/04/12 05:51:46;;;;;;;0.30;0.30;;;5.40;99.90;;;;;;5001120;28;20439;-78
2022/04/12 05:54:12;;;;;;;0.40;0.40;;;5.60;99.90;;;;;;5002662;28;20452;-78
2022/04/12 05:56:37;;;;;;;0.40;0.40;;;5.60;99.90;;;;;;5006732;28;20665;-79
2022/04/12 05:59:03;;;;;;;0.40;0.40;;;5.70;99.90;;;;;;5005914;28;20180;-78
2022/04/12 06:01:28;;;;;;;0.30;0.30;;;5.80;99.90;;;;;;5008358;28;20200;-79
2022/04/12 06:03:54;;;;;;;0.40;0.40;;;5.90;99.90;;;;;;5006651;28;20731;-79
2022/04/12 06:06:19;;;;;;;0.30;0.30;;;6.00;99.90;;;;;;5006009;28;20196;-78
2022/04/12 06:08:45;;;;;;;0.30;0.30;;;6.10;99.90;;;;;;5005217;28;20224;-78
2022/04/12 06:11:10;;;;;;;0.30;0.30;;;6.00;99.90;;;;;;5001762;28;20207;-78
2022/04/12 06:13:36;;;;;;;0.40;0.40;;;6.10;99.90;;;;;;5003591;28;20224;-78
2022/04/12 06:16:01;;;;;;;0.40;0.40;;;6.20;99.90;;;;;;5003513;28;20251;-78
2022/04/12 06:18:27;;;;;;;0.40;0.40;;;6.10;99.90;;;;;;4996599;28;20188;-78
2022/04/12 06:20:52;;;;;;;0.40;0.40;;;6.10;99.90;;;;;;5007173;28;20181;-78
2022/04/12 06:23:18;;;;;;;0.33;0.33;;;6.10;99.90;;;;;;5012847;28;20315;-78
2022/04/12 06:25:44;;;;;;;0.37;0.37;;;6.10;99.90;;;;;;5011557;28;20275;-78
2022/04/12 06:28:09;;;;;;;0.40;0.40;;;6.20;99.90;;;;;;4998292;28;20546;-78
2022/04/12 06:30:35;;;;;;;0.40;0.40;;;6.20;99.90;;;;;;5003277;28;20201;-78
2022/04/12 06:33:01;;;;;;;0.33;0.33;;;6.30;99.90;;;;;;4990829;28;20188;-78
2022/04/12 06:35:26;;;;;;;0.30;0.30;;;6.30;99.90;;;;;;5007986;28;20250;-78
2022/04/12 06:37:58;;;;;;;0.30;0.30;;;6.40;99.90;;;;;;5005306;28;20633;-79
2022/04/12 06:40:25;;;;;;;0.37;0.37;;;6.50;99.90;;;;;;4989743;28;20192;-79
2022/04/12 06:42:51;;;;;;;0.30;0.30;;;6.60;99.90;;;;;;5004549;28;20474;-78
2022/04/12 06:45:17;;;;;;;0.30;0.30;;;6.70;99.90;;;;;;5006625;28;20447;-78
2022/04/12 06:47:43;;;;;;;0.30;0.30;;;6.70;99.90;;;;;;5007296;28;20590;-78
2022/04/12 06:50:10;;;;;;;0.30;0.30;;;6.70;99.90;;;;;;4990691;28;20473;-78
2022/04/12 06:52:36;;;;;;;0.40;0.40;;;6.80;99.90;;;;;;4991262;28;20457;-78
2022/04/12 06:55:03;;;;;;;0.30;0.30;;;6.70;99.90;;;;;;5009091;28;20471;-78
2022/04/12 06:57:33;;;;;;;0.40;0.40;;;6.70;99.90;;;;;;5011282;28;20485;-79
2022/04/12 06:59:59;;;;;;;0.30;0.30;;;6.70;99.90;;;;;;5006074;28;20505;-78
2022/04/12 07:02:24;;;;;;;0.30;0.30;;;6.80;99.90;;;;;;5008060;28;20471;-78
2022/04/12 07:04:50;;;;;;;0.30;0.30;;;6.90;99.90;;;;;;4993697;28;20487;-78
2022/04/12 07:07:16;;;;;;;0.30;0.30;;;6.90;99.90;;;;;;5004912;28;20196;-78
2022/04/12 07:09:41;;;;;;;0.30;0.30;;;7.00;99.90;;;;;;5009731;28;20192;-78
2022/04/12 07:12:07;;;;;;;0.30;0.30;;;7.00;99.90;;;;;;4993527;28;20550;-78
2022/04/12 07:14:33;;;;;;;0.30;0.30;;;7.00;99.90;;;;;;5008301;28;20254;-78
2022/04/12 07:17:03;;;;;;;0.30;0.30;;;7.10;99.90;;;;;;5007623;28;20439;-78
2022/04/12 07:19:29;;;;;;;0.30;0.30;;;7.20;99.90;;;;;;4993727;28;20582;-78
2022/04/12 07:21:55;;;;;;;0.30;0.30;;;7.30;99.90;;;;;;5010300;28;20451;-78
2022/04/12 07:24:20;;;;;;;0.30;0.30;;;7.50;99.90;;;;;;5010803;28;20427;-78
2022/04/12 07:26:46;;;;;;;0.30;0.30;;;7.50;99.90;;;;;;4982924;28;20179;-78
2022/04/12 07:29:12;;;;;;;0.33;0.33;;;7.60;99.90;;;;;;4993651;28;20703;-78
2022/04/12 07:31:38;;;;;;;0.30;0.30;;;7.70;99.90;;;;;;4994318;28;20644;-78
2022/04/12 07:34:04;;;;;;;0.20;0.20;;;7.70;99.90;;;;;;5011456;28;20435;-78
2022/04/12 07:36:29;;;;;;;0.30;0.30;;;7.70;99.90;;;;;;4992610;28;20239;-78
2022/04/12 07:38:55;;;;;;;0.30;0.30;;;7.80;99.90;;;;;;5011954;28;20188;-78
2022/04/12 07:41:20;;;;;;;0.20;0.20;;;7.80;99.90;;;;;;5010841;28;20192;-78
2022/04/12 07:43:46;;;;;;;0.30;0.30;;;7.90;99.90;;;;;;5012306;28;20234;-78
2022/04/12 07:46:15;;;;;;;0.30;0.30;;;7.90;99.90;;;;;;5017069;28;20546;-78
2022/04/12 07:48:41;;;;;;;0.30;0.30;;;7.90;99.90;;;;;;5010221;28;20208;-78
2022/04/12 07:51:07;;;;;;;0.30;0.30;;;7.90;99.90;;;;;;5010106;28;20509;-79
2022/04/12 07:53:33;;;;;;;0.30;0.30;;;8.00;99.90;;;;;;4991901;28;20519;-78
2022/04/12 07:55:58;;;;;;;0.30;0.30;;;8.00;99.90;;;;;;5016500;28;20486;-78
2022/04/12 07:58:24;;;;;;;0.30;0.30;;;8.10;99.90;;;;;;5008539;28;20188;-78
2022/04/12 08:00:51;;;;;;;0.30;0.30;;;8.10;99.90;;;;;;5008140;28;20196;-78
2022/04/12 08:03:20;;;;;;;0.30;0.30;;;8.30;99.90;;;;;;4989228;28;20228;-78
2022/04/12 08:05:46;;;;;;;0.30;0.30;;;8.30;99.90;;;;;;4990888;28;21000;-78
2022/04/12 08:08:12;;;;;;;0.30;0.30;;;8.40;99.90;;;;;;5008082;28;20459;-79
2022/04/12 08:10:37;;;;;;;0.30;0.30;;;8.40;99.90;;;;;;5010867;28;20438;-78
2022/04/12 08:13:03;;;;;;;0.30;0.30;;;8.40;99.90;;;;;;5008735;28;20280;-78
2022/04/12 08:15:28;;;;;;;0.33;0.33;;;8.70;99.90;;;;;;5009756;28;20196;-78
2022/04/12 08:17:54;;;;;;;0.30;0.30;;;8.80;99.90;;;;;;5007581;28;20192;-78
2022/04/12 08:20:19;;;;;;;0.27;0.27;;;8.90;99.90;;;;;;4991500;28;20184;-78
2022/04/12 08:22:45;;;;;;;0.20;0.20;;;8.90;99.90;;;;;;5010303;28;20224;-78
2022/04/12 08:25:10;;;;;;;0.30;0.30;;;9.00;99.90;;;;;;5007471;28;20183;-78
2022/04/12 08:27:39;;;;;;;0.30;0.30;;;9.00;99.90;;;;;;5008978;28;20290;-75
2022/04/12 08:30:07;;;;;;;0.20;0.20;;;9.20;99.90;;;;;;5001263;28;20191;-77
2022/04/12 08:32:34;;;;;;;0.20;0.20;;;9.30;99.90;;;;;;5008879;28;20902;-77
2022/04/12 08:35:00;;;;;;;0.20;0.20;;;9.30;99.90;;;;;;5011090;28;20465;-77
2022/04/12 08:37:26;;;;;;;0.20;0.20;;;9.40;99.90;;;;;;5008369;28;20943;-75
2022/04/12 08:39:51;;;;;;;0.20;0.20;;;9.50;99.90;;;;;;5008476;28;20187;-77
2022/04/12 08:42:17;;;;;;;0.20;0.20;;;9.50;99.90;;;;;;5008675;28;20216;-77
2022/04/12 08:44:45;;;;;;;0.20;0.20;;;9.60;99.90;;;;;;5007838;28;20887;-78
2022/04/12 08:47:14;;;;;;;0.20;0.20;;;9.70;99.90;;;;;;5008466;28;20538;-75
2022/04/12 08:49:40;;;;;;;0.20;0.20;;;9.90;99.90;;;;;;5005870;28;20538;-77
2022/04/12 08:52:11;;;;;;;0.20;0.20;;;9.70;99.90;;;;;;4990777;28;20476;-78
2022/04/12 08:54:37;;;;;;;0.20;0.20;;;9.90;99.90;;;;;;5007307;28;20592;-78
2022/04/12 08:57:03;;;;;;;0.20;0.20;;;9.90;99.90;;;;;;4994637;28;20448;-75
2022/04/12 08:59:29;;;;;;;0.20;0.20;;;9.80;99.90;;;;;;4994260;28;20459;-78
2022/04/12 09:01:54;;;;;;;0.20;0.20;;;9.80;99.90;;;;;;5004204;28;20813;-78
2022/04/12 09:04:20;;;;;;;0.30;0.30;;;9.90;99.90;;;;;;5008751;28;20630;-78
2022/04/12 09:06:54;;;;;;;0.20;0.20;;;10.10;99.90;;;;;;5006747;28;20203;-77
2022/04/12 09:09:26;;;;;;;0.20;0.20;;;10.50;99.90;;;;;;5005273;28;20443;-77
2022/04/12 09:12:09;;;;;;;0.20;0.20;;;11.00;99.90;;;;;;5006655;28;20455;-77
2022/04/12 09:14:42;;;;;;;0.20;0.20;;;11.50;99.90;;;;;;5003979;28;20442;-78
2022/04/12 09:17:12;;;;;;;0.20;0.20;;;11.40;99.90;;;;;;4988144;28;20541;-78
2022/04/12 09:19:44;;;;;;;0.20;0.20;;;11.60;99.90;;;;;;4987701;28;20462;-77
2022/04/12 09:22:16;;;;;;;0.20;0.20;;;11.80;99.90;;;;;;4986447;28;20801;-78
2022/04/12 09:24:50;;;;;;;0.20;0.20;;;11.90;99.90;;;;;;4991138;28;20455;-79
2022/04/12 09:27:21;;;;;;;0.20;0.20;;;12.40;99.90;;;;;;5009573;28;20660;-79
2022/04/12 09:29:58;;;;;;;0.20;0.20;;;12.40;99.90;;;;;;5003437;28;20458;-79
2022/04/12 09:32:26;;;;;;;0.10;0.10;;;12.90;99.90;;;;;;4997087;28;20448;-79
2022/04/12 09:34:53;;;;;;;0.20;0.20;;;12.80;99.90;;;;;;4994711;28;20467;-78
2022/04/12 09:37:28;;;;;;;0.10;0.10;;;13.10;99.90;;;;;;4977180;28;20448;-78
2022/04/12 09:39:59;;;;;;;0.10;0.10;;;13.00;99.90;;;;;;5013682;28;20443;-78
2022/04/12 09:42:44;;;;;;;0.10;0.10;;;12.90;99.90;;;;;;4987425;28;20467;-78
2022/04/12 09:45:12;;;;;;;0.10;0.10;;;13.10;99.90;;;;;;5005106;28;20596;-81
2022/04/12 09:47:38;;;;;;;0.10;0.10;;;13.30;99.90;;;;;;5007186;28;20967;-78
2022/04/12 09:50:05;;;;;;;0.10;0.10;;;13.60;99.90;;;;;;5007899;28;20585;-79
2022/04/12 09:52:31;;;;;;;0.10;0.10;;;13.40;99.90;;;;;;5014916;28;20427;-79
2022/04/12 09:54:57;;;;;;;0.10;0.10;;;13.70;99.90;;;;;;4995926;28;20453;-81
2022/04/12 09:57:24;;;;;;;0.10;0.10;;;14.10;99.90;;;;;;4994047;28;20198;-81
2022/04/12 09:59:56;;;;;;;0.10;0.10;;;14.00;99.90;;;;;;4992212;28;20446;-81
2022/04/12 10:02:26;;;;;;;0.10;0.10;;;14.30;99.90;;;;;;5013128;28;20476;-81
2022/04/12 10:04:54;;;;;;;0.10;0.10;;;14.30;99.90;;;;;;5012462;28;20462;-80
2022/04/12 10:07:21;;;;;;;0.10;0.10;;;14.60;99.90;;;;;;5013158;28;20450;-81
2022/04/12 10:09:51;;;;;;;0.10;0.10;;;14.80;99.90;;;;;;5010849;28;20509;-81
2022/04/12 10:12:17;;;;;;;0.10;0.10;;;15.10;99.90;;;;;;5011771;28;20439;-81
2022/04/12 10:14:46;;;;;;;0.10;0.10;;;15.10;99.90;;;;;;5013050;28;20447;-81
2022/04/12 10:17:14;;;;;;;0.10;0.10;;;15.50;99.90;;;;;;4989981;28;20439;-81
2022/04/12 10:19:41;;;;;;;0.10;0.10;;;15.70;99.60;;;;;;5010128;28;20449;-81
2022/04/12 10:22:07;;;;;;;0.10;0.10;;;15.30;98.40;;;;;;5014672;28;20450;-79
2022/04/12 10:24:34;;;;;;;0.10;0.10;;;15.10;97.40;;;;;;5016542;28;20458;-80
2022/04/12 10:27:00;;;;;;;0.10;0.10;;;15.00;97.50;;;;;;5014558;28;20529;-81
2022/04/12 10:29:26;;;;;;;0.10;0.10;;;15.20;97.40;;;;;;4990661;28;21046;-81
2022/04/12 10:31:57;;;;;;;0.10;0.10;;;15.50;98.40;;;;;;5004792;28;20527;-81
2022/04/12 10:34:22;;;;;;;0.10;0.10;;;15.90;99.10;;;;;;4994511;28;20185;-80
2022/04/12 10:37:10;;;;;;;0.10;0.10;;;15.90;97.90;;;;;;5004897;28;20954;-80
2022/04/12 10:40:01;;;;;;;0.10;0.10;;;15.70;97.40;;;;;;4995551;28;20278;-81
2022/04/12 10:42:31;;;;;;;0.10;0.10;;;15.00;95.50;;;;;;4990265;28;20485;-80
2022/04/12 10:44:57;;;;;;;0.03;0.03;;;15.40;97.30;;;;;;5014088;28;20443;-81
2022/04/12 10:47:33;;;;;;;0.07;0.07;;;15.00;95.10;;;;;;4996012;28;20433;-81
2022/04/12 10:50:08;;;;;;;0.10;0.10;;;15.40;97.40;;;;;;5005571;28;20195;-81
2022/04/12 10:52:42;;;;;;;0.00;0.00;;;15.10;95.40;;;;;;5006336;28;20450;-81
2022/04/12 10:55:13;;;;;;;0.10;0.10;;;15.20;97.80;;;;;;5004330;28;20474;-80
2022/04/12 10:57:38;;;;;;;0.10;0.10;;;15.10;94.80;;;;;;5012277;28;22790;-78
2022/04/12 11:00:08;;;;;;;0.10;0.10;;;15.20;97.60;;;;;;4991809;28;20472;-81
2022/04/12 11:02:38;;;;;;;0.10;0.10;;;15.30;97.90;;;;;;4998124;28;20224;-81
2022/04/12 11:05:04;;;;;;;0.10;0.10;;;15.00;96.80;;;;;;4993832;28;20439;-81
2022/04/12 11:07:33;;;;;;;0.10;0.10;;;14.90;97.20;;;;;;5003976;28;20446;-81
2022/04/12 11:10:14;;;;;;;0.10;0.10;;;14.30;97.80;;;;;;4996142;28;20451;-78
2022/04/12 11:12:43;;;;;;;0.10;0.10;;;13.80;98.00;;;;;;4997779;28;21186;-81
2022/04/12 11:15:29;;;;;;;0.10;0.10;;;13.90;96.80;;;;;;5001949;28;20489;-82
2022/04/12 11:18:11;;;;;;;0.10;0.10;;;13.80;96.70;;;;;;4991832;28;20451;-81
2022/04/12 11:20:40;;;;;;;0.10;0.10;;;13.80;96.60;;;;;;4994207;28;20942;-82
2022/04/12 11:23:11;;;;;;;0.10;0.10;;;13.80;97.70;;;;;;5004422;28;20481;-82
2022/04/12 11:26:17;;;;;;;0.10;0.10;;;13.50;96.50;;;;;;4994801;28;20443;-81
2022/04/12 11:28:45;;;;;;;0.10;0.10;;;13.30;97.90;;;;;;5011836;28;20435;-82
2022/04/12 11:31:11;;;;;;;0.10;0.10;;;13.50;99.10;;;;;;4995302;28;20446;-80
2022/04/12 11:33:38;;;;;;;0.10;0.10;;;13.40;97.10;;;;;;5012993;28;20447;-82
2022/04/12 11:36:04;;;;;;;0.10;0.10;;;13.10;97.20;;;;;;5009065;28;20525;-79
2022/04/12 11:38:30;;;;;;;0.10;0.10;;;13.40;99.90;;;;;;5006533;28;20448;-80
2022/04/12 11:41:01;;;;;;;0.10;0.10;;;13.70;97.80;;;;;;4990981;28;20451;-80
2022/04/12 11:43:27;;;;;;;0.10;0.10;;;13.90;98.90;;;;;;4994076;28;20366;-81
2022/04/12 11:45:55;;;;;;;0.10;0.10;;;14.00;96.10;;;;;;4991759;28;20447;-80
2022/04/12 11:48:21;;;;;;;0.10;0.10;;;14.10;97.20;;;;;;4991866;28;21030;-80
2022/04/12 11:50:55;;;;;;;0.10;0.10;;;14.50;98.30;;;;;;4997178;28;20502;-80
2022/04/12 11:53:22;;;;;;;0.10;0.10;;;15.20;97.10;;;;;;4986692;28;20444;-81
2022/04/12 11:55:47;;;;;;;0.10;0.10;;;15.60;95.00;;;;;;4993330;28;21080;-82
2022/04/12 11:58:15;;;;;;;0.03;0.03;;;16.10;95.30;;;;;;5008820;28;20451;-82
2022/04/12 12:00:40;;;;;;;0.00;0.00;;;16.80;95.20;;;;;;5021281;28;20265;-83
2022/04/12 12:03:13;;;;;;;0.00;0.00;;;17.10;94.70;;;;;;5009497;28;21004;-81
2022/04/12 12:05:39;;;;;;;0.00;0.00;;;17.50;93.90;;;;;;5007539;28;20252;-82
2022/04/12 12:08:04;;;;;;;0.00;0.00;;;17.20;93.60;;;;;;4989950;28;20958;-81
2022/04/12 12:10:30;;;;;;;0.00;0.00;;;16.90;93.90;;;;;;5000399;28;20192;-83
2022/04/12 12:12:56;;;;;;;0.00;0.00;;;16.50;93.40;;;;;;4991476;28;20218;-82
2022/04/12 12:15:24;;;;;;;0.00;0.00;;;17.30;93.60;;;;;;5009703;28;20675;-83
2022/04/12 12:17:55;;;;;;;0.00;0.00;;;17.00;92.90;;;;;;5009826;28;20184;-83
2022/04/12 12:20:24;;;;;;;0.00;0.00;;;16.80;95.10;;;;;;5009595;28;20443;-81
2022/04/12 12:22:52;;;;;;;0.00;0.00;;;17.60;94.20;;;;;;5009632;28;20486;-82
2022/04/12 12:25:23;;;;;;;0.00;0.00;;;18.60;93.40;;;;;;4991761;28;20478;-82
2022/04/12 12:27:57;;;;;;;0.00;0.00;;;18.70;92.60;;;;;;4975006;28;20505;-83
2022/04/12 12:30:27;;;;;;;0.00;0.00;;;18.40;91.90;;;;;;5000712;28;20478;-83
2022/04/12 12:32:56;;;;;;;0.00;0.00;;;19.10;94.50;;;;;;5009495;28;20443;-82
2022/04/12 12:35:25;;;;;;;0.00;0.00;;;19.20;92.60;;;;;;5007985;28;20496;-81
2022/04/12 12:37:50;;;;;;;0.00;0.00;;;19.20;92.00;;;;;;5010325;28;20447;-82
2022/04/12 12:40:20;;;;;;;0.00;0.00;;;19.10;91.20;;;;;;5010588;28;20813;-82
2022/04/12 12:42:48;;;;;;;0.00;0.00;;;18.90;90.70;;;;;;5009774;28;20704;-82
2022/04/12 12:45:15;;;;;;;0.00;0.00;;;18.80;91.70;;;;;;5010036;28;20590;-81
2022/04/12 12:47:42;;;;;;;0.00;0.00;;;18.00;92.50;;;;;;4985074;28;20967;-81
2022/04/12 12:50:12;;;;;;;0.00;0.00;;;18.90;92.80;;;;;;5000701;28;20450;-82
2022/04/12 12:52:40;;;;;;;0.00;0.00;;;18.80;92.10;;;;;;5000112;28;20544;-83
2022/04/12 12:55:07;;;;;;;0.00;0.00;;;19.00;92.30;;;;;;4976923;28;21092;-81